»·PEaware :: N587EF KSBP-KAVX

N587EF :: KSBP-KAVX

FLIGHT INFORMATION

Flight Status: Arrived
Operator: Privately registered:
United States
More flights under this callsign
Pilot: Eloy F. (29609)
Aircraft: BEECH AIRCRAFT DEBONAIR BONANZA
(BE33)
More flights by this aircraft type
Origin: KSBP San Luis Co Regl
United States
Destination: KAVX Catalina
United States
More flights between these airports :: More routes between these airports
Route:
File this flight plan on PilotEdge
Remarks:
Altitude:
(Current/Filed)
7,000ft
Speed:
(Current/Filed)
0kts
Departed: 08-Jan-21 01:26 PM
Arrived: 08-Jan-21 02:37 PM
Distance/Time
Traveled:
156nm/1:11
Distance/Time
To Go:
Arrived

Flight Plot

Page will automatically refresh every two minutes.


Map Options




Map Legend


Flown Route
Filed Route
Departure Airport
Arrival Airport
Navaid (VOR, NDB)
Fix

Horizontal Profiles

Position Reports

Time Latitude Longitude Heading Altitude Ground
Speed
08-Jan-21 13:20 35.234431 -120.632959 214 215ft 0kts
08-Jan-21 13:21 35.234374 -120.633135 267 215ft 1kts
08-Jan-21 13:22 35.233925 -120.633111 121 215ft 5kts
08-Jan-21 13:23 35.233230 -120.632330 204 215ft 0kts
08-Jan-21 13:24 35.232944 -120.633306 302 215ft 18kts
08-Jan-21 13:25 35.243672 -120.652745 277 861ft 76kts
08-Jan-21 13:26 35.222562 -120.638712 126 1510ft 130kts
08-Jan-21 13:27 35.201367 -120.604141 110 2451ft 124kts
08-Jan-21 13:28 35.182317 -120.569496 128 3353ft 123kts
08-Jan-21 13:29 35.152545 -120.549231 160 4141ft 124kts
08-Jan-21 13:30 35.119648 -120.537496 183 4859ft 123kts
08-Jan-21 13:31 35.085454 -120.540003 191 5478ft 128kts
08-Jan-21 13:32 35.045341 -120.552671 201 5403ft 171kts
08-Jan-21 13:33 35.003121 -120.573780 208 5554ft 164kts
08-Jan-21 13:34 34.960370 -120.595587 199 5565ft 170kts
08-Jan-21 13:35 34.912333 -120.603499 186 5509ft 178kts
08-Jan-21 13:36 34.905831 -120.639375 331 5640ft 131kts
08-Jan-21 13:37 34.938126 -120.628042 33 5645ft 147kts
08-Jan-21 13:38 34.968445 -120.592831 61 5528ft 163kts
08-Jan-21 13:39 34.953071 -120.539255 116 5531ft 175kts
08-Jan-21 13:40 34.924528 -120.489667 125 5479ft 181kts
08-Jan-21 13:41 34.896517 -120.440006 117 5519ft 178kts
08-Jan-21 13:42 34.864361 -120.393495 132 5524ft 181kts
08-Jan-21 13:43 34.831077 -120.348013 128 5521ft 180kts
08-Jan-21 13:44 34.797394 -120.302363 128 5512ft 181kts
08-Jan-21 13:45 34.765060 -120.255251 128 5503ft 181kts
08-Jan-21 13:46 34.733762 -120.207185 128 5494ft 181kts
08-Jan-21 13:47 34.693014 -120.174692 157 5490ft 176kts
08-Jan-21 13:48 34.648959 -120.148741 158 5490ft 176kts
08-Jan-21 13:49 34.604212 -120.123615 158 5491ft 179kts
08-Jan-21 13:50 34.558741 -120.098786 159 5491ft 179kts
08-Jan-21 13:51 34.512991 -120.074183 159 5486ft 180kts
08-Jan-21 13:52 34.467620 -120.048360 153 5480ft 181kts
08-Jan-21 13:53 34.425325 -120.015038 146 5471ft 182kts
08-Jan-21 13:54 34.386346 -119.975712 137 5464ft 182kts
08-Jan-21 13:55 34.355151 -119.927249 127 5464ft 183kts
08-Jan-21 13:56 34.324532 -119.877945 127 5465ft 183kts
08-Jan-21 13:57 34.294308 -119.828492 122 5465ft 183kts
08-Jan-21 13:58 34.275751 -119.771135 109 5465ft 183kts
08-Jan-21 13:59 34.257971 -119.713384 109 5465ft 183kts
08-Jan-21 14:00 34.241176 -119.655182 107 5466ft 183kts
08-Jan-21 14:01 34.224522 -119.596908 106 5466ft 184kts
08-Jan-21 14:02 34.207545 -119.538362 106 5466ft 184kts
08-Jan-21 14:03 34.191182 -119.479196 106 5439ft 186kts
08-Jan-21 14:04 34.174994 -119.419999 106 5439ft 185kts
08-Jan-21 14:05 34.158829 -119.360865 106 5439ft 185kts
08-Jan-21 14:06 34.142235 -119.302370 111 5518ft 182kts
08-Jan-21 14:07 34.119618 -119.247101 120 5519ft 185kts
08-Jan-21 14:08 34.093725 -119.193255 120 5519ft 185kts
08-Jan-21 14:09 34.067719 -119.139523 120 5519ft 185kts
08-Jan-21 14:10 34.046120 -119.083314 109 5520ft 185kts
08-Jan-21 14:11 34.013381 -119.037215 141 5517ft 181kts
08-Jan-21 14:12 33.979747 -119.002279 140 5261ft 139kts
08-Jan-21 14:13 33.953447 -118.974096 140 4888ft 118kts
08-Jan-21 14:14 33.927551 -118.946383 143 4542ft 142kts
08-Jan-21 14:15 33.893631 -118.914079 144 4185ft 164kts
08-Jan-21 14:16 33.856600 -118.879117 145 3797ft 172kts
08-Jan-21 14:17 33.819788 -118.847267 149 3460ft 147kts
08-Jan-21 14:19 33.787100 -118.822880 152 3491ft 139kts
08-Jan-21 14:20 33.751526 -118.799557 154 3507ft 150kts
08-Jan-21 14:21 33.714426 -118.774993 153 3511ft 153kts
08-Jan-21 14:22 33.678068 -118.747888 148 3497ft 154kts
08-Jan-21 14:23 33.642499 -118.719036 147 3500ft 153kts
08-Jan-21 14:24 33.607488 -118.690130 146 3505ft 152kts
08-Jan-21 14:25 33.573205 -118.660654 144 3494ft 152kts
08-Jan-21 14:26 33.540960 -118.630557 143 3373ft 136kts
08-Jan-21 14:27 33.514153 -118.604060 141 3232ft 112kts
08-Jan-21 14:28 33.490524 -118.578723 140 3121ft 129kts
08-Jan-21 14:29 33.461129 -118.548027 140 3014ft 145kts
08-Jan-21 14:30 33.433710 -118.518748 137 2780ft 116kts
08-Jan-21 14:30 33.416393 -118.496956 123 2579ft 105kts
08-Jan-21 14:32 33.414976 -118.458262 54 2345ft 98kts
08-Jan-21 14:33 33.431116 -118.430702 52 2194ft 99kts
08-Jan-21 14:33 33.440160 -118.405916 106 1937ft 88kts
08-Jan-21 14:34 33.424063 -118.389975 179 1981ft 73kts
08-Jan-21 14:36 33.408742 -118.409561 234 1598ft 66kts
08-Jan-21 14:37 33.402360 -118.419555 73 1606ft 8kts
08-Jan-21 14:37 33.402743 -118.418904 54 1605ft 14kts
08-Jan-21 14:38 33.403858 -118.415230 49 1588ft 13kts
08-Jan-21 14:39 33.403622 -118.415112 238 1588ft 0kts
08-Jan-21 14:40 33.403622 -118.415112 238 1588ft 0kts
08-Jan-21 14:41 33.403622 -118.415111 235 1588ft 0kts
08-Jan-21 14:42 33.403622 -118.415111 235 1588ft 0kts
08-Jan-21 14:43 33.403622 -118.415111 235 1588ft 0kts
08-Jan-21 14:44 33.403622 -118.415111 235 1588ft 0kts
08-Jan-21 14:45 33.403622 -118.415111 235 1588ft 0kts
08-Jan-21 14:46 33.403622 -118.415111 235 1588ft 0kts
08-Jan-21 14:47 33.403622 -118.415111 235 1588ft 0kts

Navigation Log

Ident Type
Flight plan parsing failed, navigation log unavailable